Thompson, Michigan
Current Conditions -  °F | °C
As of 2:14 AM on Wednesday 22 Oct 2014 (Local Time) from KISQ Reporting Station
Clear Clear  
Wind Chill: -2°   Ceiling: Unl
Heat Index: -2°   Visibility: 10mi
Dew Point: -2°   Wind: 0mph
Humidity: 96%   Direction: NA
Pressure: 30.32"   Gusts: NA
Location:  46.1571°N, 86.3397°W
Report Text: KISQ 220614Z AUTO 00000KT 10SM CLR M02/M02 A3032 RMK AO2 T10181024
Loading
Personal Weather Stations






























Interactive Weather Map
Tropical Storm Tracking
New forecast layout! Learn more

10-Day Weather Forecast

Advertisements
Track Severe Weather on mobile